createdAt,value
2018-12-08T00:05:31.686Z,6.83
2018-12-08T00:10:35.049Z,6.84
2018-12-08T00:15:38.422Z,6.88
2018-12-08T00:20:41.746Z,6.91
2018-12-08T00:25:45.136Z,6.85
2018-12-08T00:31:27.223Z,6.84
2018-12-08T00:36:30.680Z,6.88
2018-12-08T00:41:34.184Z,6.99
2018-12-08T00:46:37.562Z,6.95
2018-12-08T00:51:41.016Z,6.94
2018-12-08T00:56:44.412Z,6.91
2018-12-08T01:06:56.919Z,7.04
2018-12-08T01:12:07.465Z,7.08
2018-12-08T01:17:11.162Z,7.02
2018-12-08T01:22:14.524Z,7.13
2018-12-08T01:27:17.878Z,7.10
2018-12-08T01:32:21.508Z,7.16
2018-12-08T01:37:24.879Z,7.16
2018-12-08T01:42:28.439Z,7.19
2018-12-08T01:47:31.913Z,7.17
2018-12-08T01:52:35.293Z,6.85
2018-12-08T01:57:38.728Z,6.64
2018-12-08T02:02:42.110Z,6.67
2018-12-08T02:07:45.513Z,6.75
2018-12-08T02:12:48.937Z,6.86
2018-12-08T02:17:52.329Z,6.88
2018-12-08T02:22:55.665Z,6.97
2018-12-08T02:27:59.205Z,7.06
2018-12-08T02:33:42.056Z,7.06
2018-12-08T02:38:58.046Z,7.05
2018-12-08T02:44:01.397Z,6.99
2018-12-08T02:49:04.850Z,7.04
2018-12-08T02:54:08.195Z,7.17
2018-12-08T02:59:11.719Z,7.14
2018-12-08T03:04:34.512Z,7.11
2018-12-08T03:09:37.988Z,7.01
2018-12-08T03:14:41.413Z,6.81
2018-12-08T03:19:44.803Z,6.88
2018-12-08T03:24:48.189Z,6.81
2018-12-08T03:29:51.547Z,6.93
2018-12-08T03:34:54.937Z,6.91
2018-12-08T03:39:58.329Z,6.94
2018-12-08T03:45:01.680Z,6.99
2018-12-08T03:50:06.123Z,6.97
2018-12-08T03:55:09.457Z,7.08
2018-12-08T04:00:32.748Z,6.95
2018-12-08T04:05:36.124Z,7.02
2018-12-08T04:10:39.504Z,7.00
2018-12-08T04:15:42.890Z,7.15
2018-12-08T04:20:46.270Z,7.23
2018-12-08T04:25:49.608Z,7.27
2018-12-08T04:30:53.093Z,7.27
2018-12-08T04:35:56.499Z,7.37
2018-12-08T04:41:00.223Z,7.41
2018-12-08T04:46:03.604Z,7.50
2018-12-08T04:51:06.898Z,7.50
2018-12-08T04:56:10.322Z,7.53
2018-12-08T05:06:22.730Z,7.56
2018-12-08T05:11:26.107Z,7.52
2018-12-08T05:16:29.488Z,7.41
2018-12-08T05:21:32.859Z,7.35
2018-12-08T05:26:36.301Z,7.33
2018-12-08T05:31:39.630Z,7.26
2018-12-08T05:36:42.995Z,7.34
2018-12-08T05:41:46.391Z,7.33
2018-12-08T05:46:49.859Z,7.26
2018-12-08T05:51:53.216Z,7.19
2018-12-08T05:56:56.657Z,7.15
2018-12-08T06:02:19.477Z,7.18
2018-12-08T06:07:22.872Z,7.16
2018-12-08T06:12:27.562Z,7.14
2018-12-08T06:17:30.895Z,7.21
2018-12-08T06:28:21.884Z,7.22
2018-12-08T06:33:25.323Z,7.46
2018-12-08T06:38:28.781Z,7.46
2018-12-08T06:43:32.178Z,7.48
2018-12-08T06:48:35.551Z,7.47
2018-12-08T06:53:39.046Z,7.37
2018-12-08T06:58:42.368Z,7.42
2018-12-08T07:03:45.723Z,7.46
2018-12-08T07:08:49.048Z,7.47
2018-12-08T07:13:52.442Z,7.50
2018-12-08T07:18:56.105Z,7.47
2018-12-08T07:23:59.495Z,7.36
2018-12-08T07:29:02.877Z,7.35
2018-12-08T07:34:06.233Z,7.40
2018-12-08T07:39:09.654Z,7.38
2018-12-08T07:44:13.016Z,7.28
2018-12-08T07:49:16.421Z,7.30
2018-12-08T07:54:19.880Z,7.38
2018-12-08T08:04:33.036Z,7.76
2018-12-08T08:09:36.414Z,7.63
2018-12-08T08:14:39.779Z,7.61
2018-12-08T08:19:43.171Z,7.62
2018-12-08T08:24:46.550Z,7.67
2018-12-08T08:29:49.924Z,7.71
2018-12-08T08:34:53.266Z,7.50
2018-12-08T08:39:56.646Z,7.50
2018-12-08T08:45:00.059Z,7.63
2018-12-08T08:50:05.101Z,7.68
2018-12-08T08:55:07.327Z,7.55
2018-12-08T09:00:12.102Z,7.59
2018-12-08T09:05:15.683Z,7.72
2018-12-08T09:10:19.081Z,7.82
2018-12-08T09:15:22.435Z,7.87
2018-12-08T09:20:45.199Z,7.82
2018-12-08T09:25:48.618Z,7.74
2018-12-08T09:30:52.096Z,7.79
2018-12-08T09:35:55.483Z,7.75
2018-12-08T09:40:58.835Z,7.73
2018-12-08T09:46:02.248Z,7.63
2018-12-08T09:51:05.708Z,7.54
2018-12-08T09:56:09.060Z,7.51
2018-12-08T10:01:12.430Z,7.49
2018-12-08T10:06:15.816Z,7.55
2018-12-08T10:11:19.318Z,7.59
2018-12-08T10:16:22.656Z,7.67
2018-12-08T10:26:35.560Z,7.74
2018-12-08T10:31:38.924Z,7.67
2018-12-08T10:36:42.339Z,7.75
2018-12-08T10:41:45.707Z,7.82
2018-12-08T10:46:49.067Z,7.82
2018-12-08T10:51:52.419Z,7.76
2018-12-08T10:56:55.801Z,7.72
2018-12-08T11:02:18.240Z,7.83
2018-12-08T11:07:21.686Z,7.82
2018-12-08T11:12:25.079Z,7.78
2018-12-08T11:17:28.471Z,7.78
2018-12-08T11:22:31.889Z,7.87
2018-12-08T11:27:35.196Z,7.96
2018-12-08T11:32:38.578Z,7.96
2018-12-08T11:37:41.982Z,8.05
2018-12-08T11:42:45.495Z,8.18
2018-12-08T11:47:48.914Z,8.29
2018-12-08T11:52:52.305Z,8.38
2018-12-08T11:57:55.750Z,8.40
2018-12-08T12:02:59.221Z,8.39
2018-12-08T12:08:02.564Z,8.51
2018-12-08T12:13:06.019Z,8.66
2018-12-08T12:18:09.421Z,8.78
2018-12-08T12:23:12.814Z,8.62
2018-12-08T12:28:42.041Z,8.52
2018-12-08T12:33:45.476Z,8.56
2018-12-08T12:38:48.850Z,8.59
2018-12-08T12:43:52.189Z,8.54
2018-12-08T12:54:05.025Z,8.78
2018-12-08T12:59:08.396Z,8.88
2018-12-08T13:04:11.790Z,8.93
2018-12-08T13:09:15.221Z,9.00
2018-12-08T13:14:18.743Z,9.12
2018-12-08T13:19:22.451Z,9.15
2018-12-08T13:24:49.985Z,9.35
2018-12-08T13:29:53.607Z,9.38
2018-12-08T13:34:56.968Z,9.31
2018-12-08T13:40:00.585Z,9.44
2018-12-08T13:45:23.367Z,9.40
2018-12-08T13:50:26.786Z,9.48
2018-12-08T13:55:30.843Z,9.45
2018-12-08T14:00:34.358Z,9.45
2018-12-08T14:05:37.716Z,9.23
2018-12-08T14:10:41.115Z,9.11
2018-12-08T14:15:44.994Z,9.09
2018-12-08T14:20:48.415Z,9.17
2018-12-08T14:26:11.588Z,9.17
2018-12-08T14:31:15.064Z,9.08
2018-12-08T14:36:18.442Z,8.97
2018-12-08T14:41:22.221Z,8.80
2018-12-08T14:46:45.620Z,8.72
2018-12-08T14:51:49.097Z,8.67
2018-12-08T14:57:12.065Z,8.76
2018-12-08T15:02:15.746Z,8.77
2018-12-08T15:07:19.239Z,8.76
2018-12-08T15:12:22.768Z,8.80
2018-12-08T15:17:26.217Z,8.80
2018-12-08T15:22:29.572Z,8.74
2018-12-08T15:38:05.275Z,8.73
2018-12-08T15:43:09.108Z,8.80
2018-12-08T15:48:13.144Z,8.81
2018-12-08T15:53:17.215Z,8.83
2018-12-08T15:58:20.583Z,8.84
2018-12-08T16:03:24.221Z,8.83
2018-12-08T16:13:36.764Z,8.87
2018-12-08T16:18:40.192Z,8.95
2018-12-08T16:23:43.559Z,8.89
2018-12-08T16:28:47.022Z,8.84
2018-12-08T16:34:10.187Z,8.78
2018-12-08T16:44:42.547Z,8.59
2018-12-08T16:49:46.035Z,8.58
2018-12-08T16:54:49.527Z,8.56
2018-12-08T16:59:52.983Z,8.38
2018-12-08T17:04:56.464Z,8.45
2018-12-08T17:10:00.082Z,8.56
2018-12-08T17:15:03.637Z,8.53
2018-12-08T17:20:26.514Z,8.69
2018-12-08T17:25:29.979Z,8.82
2018-12-08T17:30:33.385Z,8.98
2018-12-08T17:35:37.063Z,9.06
2018-12-08T17:40:40.491Z,9.01
2018-12-08T17:45:43.899Z,8.97
2018-12-08T17:50:47.452Z,8.94
2018-12-08T17:55:51.245Z,8.85
2018-12-08T18:01:14.557Z,8.84
2018-12-08T18:06:30.350Z,8.81
2018-12-08T18:11:35.158Z,8.74
2018-12-08T18:16:38.532Z,8.77
2018-12-08T18:26:50.478Z,8.72
2018-12-08T18:31:54.446Z,8.84
2018-12-08T18:36:57.846Z,8.84
2018-12-08T18:42:01.244Z,8.89
2018-12-08T18:47:04.644Z,9.19
2018-12-08T18:52:08.090Z,9.32
2018-12-08T18:57:12.324Z,9.31
2018-12-08T19:02:15.713Z,9.43
2018-12-08T19:07:19.060Z,9.57
2018-12-08T19:12:22.466Z,9.43
2018-12-08T19:17:25.868Z,9.29
2018-12-08T19:27:58.545Z,9.20
2018-12-08T19:33:01.940Z,9.16
2018-12-08T19:38:05.317Z,9.10
2018-12-08T19:43:08.822Z,9.04
2018-12-08T19:48:12.434Z,8.95
2018-12-08T19:53:15.772Z,9.08
2018-12-08T19:58:19.231Z,9.09
2018-12-08T20:03:22.543Z,9.07
2018-12-08T20:08:25.924Z,9.00
2018-12-08T20:13:29.330Z,9.02
2018-12-08T20:18:32.757Z,9.08
2018-12-08T20:23:36.157Z,9.12
2018-12-08T20:28:39.640Z,9.16
2018-12-08T20:33:43.053Z,9.07
2018-12-08T20:38:46.454Z,9.01
2018-12-08T20:43:49.769Z,9.01
2018-12-08T20:48:53.178Z,9.01
2018-12-08T20:53:56.597Z,8.97
2018-12-08T20:59:00.005Z,8.99
2018-12-08T21:04:03.366Z,9.11
2018-12-08T21:09:06.740Z,9.08
2018-12-08T21:14:10.157Z,9.06
2018-12-08T21:19:13.604Z,9.02
2018-12-08T21:24:17.075Z,9.17
2018-12-08T21:29:20.612Z,9.24
2018-12-08T21:34:43.402Z,9.31
2018-12-08T21:39:46.822Z,9.19
2018-12-08T21:44:50.240Z,9.09
2018-12-08T21:50:13.246Z,9.09
2018-12-08T21:55:16.955Z,9.14
2018-12-08T22:00:30.839Z,9.03
2018-12-08T22:05:35.919Z,9.09
2018-12-08T22:10:39.438Z,9.17
2018-12-08T22:15:43.144Z,9.10
2018-12-08T22:20:46.790Z,9.12
2018-12-08T22:25:50.197Z,9.14
2018-12-08T22:30:53.609Z,9.07
2018-12-08T22:35:57.203Z,9.16
2018-12-08T22:41:00.598Z,9.21
2018-12-08T22:46:04.100Z,9.13
2018-12-08T22:51:07.432Z,9.30
2018-12-08T22:56:10.825Z,9.29
2018-12-08T23:01:14.240Z,9.33
2018-12-08T23:06:17.675Z,9.42
2018-12-08T23:11:21.397Z,9.41
2018-12-08T23:16:24.793Z,9.62
2018-12-08T23:21:28.171Z,9.67
2018-12-08T23:26:31.582Z,9.76
2018-12-08T23:31:34.940Z,9.70
2018-12-08T23:36:38.361Z,9.83
2018-12-08T23:41:41.718Z,9.89
2018-12-08T23:46:45.079Z,9.94
2018-12-08T23:51:48.469Z,10.03
2018-12-08T23:56:54.958Z,9.37
